Time;durP1;ratioP1;P1;durP2;ratioP2;P2;SDS_P1;SDS_P2;PMS_P1;PMS_P2;Temp;Humidity;BMP_temperature;BMP_pressure;BME280_temperature;BME280_humidity;BME280_pressure;Samples;Min_cycle;Max_cycle;Signal;HPM_P1;HPM_P2
2022/08/22 00:02:20;;;;;;;0.70;0.70;;;;;;;;;;4969355;28;20304;-64
2022/08/22 00:04:52;;;;;;;0.60;0.60;;;;;;;;;;4969244;28;20214;-65
2022/08/22 00:07:24;;;;;;;1.38;0.73;;;;;;;;;;4969453;28;20261;-65
2022/08/22 00:09:56;;;;;;;0.95;0.57;;;;;;;;;;4968737;28;20237;-66
2022/08/22 00:12:38;;;;;;;0.60;0.52;;;;;;;;;;4969547;28;20308;-65
2022/08/22 00:15:07;;;;;;;1.00;0.80;;;;;;;;;;4969921;28;20684;-65
2022/08/22 00:17:37;;;;;;;0.60;0.60;;;;;;;;;;4969652;28;20324;-65
2022/08/22 00:20:09;;;;;;;1.05;0.60;;;;;;;;;;4969304;28;20250;-64
2022/08/22 00:22:40;;;;;;;0.55;0.55;;;;;;;;;;4969237;28;20210;-64
2022/08/22 00:25:15;;;;;;;0.73;0.73;;;;;;;;;;4969640;28;20261;-65
2022/08/22 00:27:56;;;;;;;1.17;0.73;;;;;;;;;;4968548;28;20268;-65
2022/08/22 00:30:24;;;;;;;0.60;0.60;;;;;;;;;;4969305;28;20260;-65
2022/08/22 00:32:54;;;;;;;2.22;0.60;;;;;;;;;;4964954;28;20215;-64
2022/08/22 00:35:24;;;;;;;0.55;0.55;;;;;;;;;;4960575;28;20371;-64
2022/08/22 00:38:01;;;;;;;0.77;0.70;;;;;;;;;;4969358;28;20292;-64
2022/08/22 00:40:31;;;;;;;0.52;0.52;;;;;;;;;;4960445;28;20210;-65
2022/08/22 00:43:08;;;;;;;0.57;0.57;;;;;;;;;;4962814;28;20623;-65
2022/08/22 00:45:52;;;;;;;0.40;0.40;;;;;;;;;;4969485;28;20626;-64
2022/08/22 00:48:28;;;;;;;0.63;0.60;;;;;;;;;;4968758;28;20213;-64
2022/08/22 00:51:13;;;;;;;0.60;0.60;;;;;;;;;;4968254;28;20221;-64
2022/08/22 00:53:56;;;;;;;0.50;0.50;;;;;;;;;;4959039;28;20498;-65
2022/08/22 00:56:38;;;;;;;0.52;0.52;;;;;;;;;;4969093;28;20671;-65
2022/08/22 00:59:12;;;;;;;0.63;0.63;;;;;;;;;;4968710;28;20643;-65
2022/08/22 01:01:44;;;;;;;1.00;1.00;;;;;;;;;;4969022;28;20221;-65
2022/08/22 01:04:22;;;;;;;0.70;0.40;;;;;;;;;;4968950;28;20306;-65
2022/08/22 01:06:54;;;;;;;0.65;0.50;;;;;;;;;;4968939;28;20232;-65
2022/08/22 01:09:31;;;;;;;0.60;0.60;;;;;;;;;;4968379;28;20210;-65
2022/08/22 01:12:05;;;;;;;0.75;0.60;;;;;;;;;;4968815;28;20760;-65
2022/08/22 01:14:41;;;;;;;0.52;0.52;;;;;;;;;;4968740;28;20577;-65
2022/08/22 01:17:27;;;;;;;1.10;0.60;;;;;;;;;;4968878;28;20234;-65
2022/08/22 01:20:13;;;;;;;0.65;0.65;;;;;;;;;;4968227;28;20238;-65
2022/08/22 01:22:50;;;;;;;0.60;0.60;;;;;;;;;;4968966;28;20205;-66
2022/08/22 01:25:33;;;;;;;1.23;0.60;;;;;;;;;;4967499;28;20206;-65
2022/08/22 01:28:11;;;;;;;0.82;0.60;;;;;;;;;;4972630;28;20206;-65
2022/08/22 01:30:48;;;;;;;2.97;0.65;;;;;;;;;;4972328;28;20302;-66
2022/08/22 01:33:46;;;;;;;0.60;0.60;;;;;;;;;;4972783;28;20261;-65
2022/08/22 01:36:24;;;;;;;1.02;0.60;;;;;;;;;;4972231;28;20229;-65
2022/08/22 01:39:00;;;;;;;1.27;0.60;;;;;;;;;;4972692;28;20230;-65
2022/08/22 01:41:42;;;;;;;0.60;0.60;;;;;;;;;;4971722;28;20209;-65
2022/08/22 01:44:19;;;;;;;0.65;0.65;;;;;;;;;;4972153;28;20214;-65
2022/08/22 01:46:55;;;;;;;0.60;0.60;;;;;;;;;;4953357;29;20238;-65
2022/08/22 01:49:23;;;;;;;0.60;0.60;;;;;;;;;;4969040;28;20359;-65
2022/08/22 01:51:54;;;;;;;0.70;0.70;;;;;;;;;;4972125;28;20580;-65
2022/08/22 01:54:25;;;;;;;0.57;0.57;;;;;;;;;;4971742;28;20214;-65
2022/08/22 01:56:52;;;;;;;0.40;0.40;;;;;;;;;;4972297;28;20221;-65
2022/08/22 01:59:23;;;;;;;0.70;0.70;;;;;;;;;;4972080;28;20234;-65
2022/08/22 02:01:56;;;;;;;1.55;0.60;;;;;;;;;;4971354;28;20773;-64
2022/08/22 02:04:30;;;;;;;1.38;0.50;;;;;;;;;;4972004;28;20213;-64
2022/08/22 02:07:03;;;;;;;0.60;0.60;;;;;;;;;;4972229;28;20210;-64
2022/08/22 02:09:35;;;;;;;0.50;0.50;;;;;;;;;;4952823;29;20214;-65
2022/08/22 02:12:14;;;;;;;0.70;0.70;;;;;;;;;;4966024;28;20210;-65
2022/08/22 02:14:45;;;;;;;0.50;0.50;;;;;;;;;;4971729;28;20225;-65
2022/08/22 02:17:17;;;;;;;0.50;0.50;;;;;;;;;;4971454;28;20693;-65
2022/08/22 02:19:51;;;;;;;0.50;0.50;;;;;;;;;;4971430;28;20242;-65
2022/08/22 02:22:26;;;;;;;0.75;0.75;;;;;;;;;;4971615;28;20233;-65
2022/08/22 02:25:00;;;;;;;1.08;0.60;;;;;;;;;;4971895;28;20612;-65
2022/08/22 02:27:33;;;;;;;2.03;0.68;;;;;;;;;;4971391;28;20626;-65
2022/08/22 02:30:03;;;;;;;0.50;0.50;;;;;;;;;;4970979;28;20221;-65
2022/08/22 02:32:33;;;;;;;1.33;0.65;;;;;;;;;;4971319;28;20238;-65
2022/08/22 02:35:04;;;;;;;0.60;0.60;;;;;;;;;;4971566;28;20583;-65
2022/08/22 02:37:36;;;;;;;0.50;0.50;;;;;;;;;;4970234;28;20213;-66
2022/08/22 02:40:06;;;;;;;0.52;0.52;;;;;;;;;;4971526;28;20223;-65
2022/08/22 02:42:37;;;;;;;1.95;0.50;;;;;;;;;;4970774;28;20261;-65
2022/08/22 02:45:13;;;;;;;0.65;0.65;;;;;;;;;;4970429;28;20806;-65
2022/08/22 02:47:42;;;;;;;1.08;0.82;;;;;;;;;;4970322;28;20639;-65
2022/08/22 02:50:14;;;;;;;0.60;0.60;;;;;;;;;;4969705;28;20695;-64
2022/08/22 02:52:49;;;;;;;0.57;0.57;;;;;;;;;;4968823;28;20672;-65
2022/08/22 02:55:19;;;;;;;0.80;0.70;;;;;;;;;;4969681;28;20218;-65
2022/08/22 02:57:51;;;;;;;1.13;0.63;;;;;;;;;;4971159;28;20202;-65
2022/08/22 03:00:26;;;;;;;2.30;0.55;;;;;;;;;;4970485;28;20203;-65
2022/08/22 03:02:59;;;;;;;3.92;0.77;;;;;;;;;;4970615;28;20475;-65
2022/08/22 03:05:28;;;;;;;0.75;0.75;;;;;;;;;;4970122;28;20202;-65
2022/08/22 03:08:03;;;;;;;2.13;0.70;;;;;;;;;;4969414;28;20673;-65
2022/08/22 03:10:34;;;;;;;0.65;0.60;;;;;;;;;;4951125;29;20218;-65
2022/08/22 03:13:08;;;;;;;1.67;0.60;;;;;;;;;;4966582;28;20292;-66
2022/08/22 03:15:39;;;;;;;1.85;0.73;;;;;;;;;;4970476;28;20214;-65
2022/08/22 03:18:14;;;;;;;0.73;0.73;;;;;;;;;;4969394;28;20325;-65
2022/08/22 03:20:47;;;;;;;0.93;0.60;;;;;;;;;;4969888;28;20284;-65
2022/08/22 03:23:21;;;;;;;4.05;0.80;;;;;;;;;;4969561;28;20551;-65
2022/08/22 03:25:51;;;;;;;1.38;0.75;;;;;;;;;;4969804;28;20269;-66
2022/08/22 03:28:21;;;;;;;0.88;0.70;;;;;;;;;;4969454;28;20210;-65
2022/08/22 03:30:56;;;;;;;0.63;0.63;;;;;;;;;;4970099;28;20210;-65
2022/08/22 03:33:26;;;;;;;0.82;0.82;;;;;;;;;;4970035;28;20217;-66
2022/08/22 03:36:00;;;;;;;0.77;0.77;;;;;;;;;;4969358;28;20708;-65
2022/08/22 03:38:37;;;;;;;0.50;0.50;;;;;;;;;;4969099;28;20684;-65
2022/08/22 03:41:11;;;;;;;0.70;0.70;;;;;;;;;;4970463;28;20250;-66
2022/08/22 03:43:56;;;;;;;2.70;0.80;;;;;;;;;;4970674;28;20210;-65
2022/08/22 03:46:33;;;;;;;0.60;0.60;;;;;;;;;;4970015;28;20558;-66
2022/08/22 03:49:08;;;;;;;1.95;0.80;;;;;;;;;;4969170;28;20689;-64
2022/08/22 03:51:49;;;;;;;0.70;0.70;;;;;;;;;;4969884;28;20213;-65
2022/08/22 03:54:34;;;;;;;1.75;0.85;;;;;;;;;;4969944;28;20213;-65
2022/08/22 03:57:19;;;;;;;0.82;0.82;;;;;;;;;;4970350;28;20218;-65
2022/08/22 04:00:08;;;;;;;0.80;0.80;;;;;;;;;;4969816;28;20233;-65
2022/08/22 04:02:47;;;;;;;0.77;0.77;;;;;;;;;;4969862;28;20272;-65
2022/08/22 04:05:24;;;;;;;2.95;0.80;;;;;;;;;;4970204;28;20225;-65
2022/08/22 04:08:03;;;;;;;1.50;0.80;;;;;;;;;;4969607;28;20206;-65
2022/08/22 04:10:39;;;;;;;0.73;0.70;;;;;;;;;;4970123;28;20215;-65
2022/08/22 04:13:20;;;;;;;0.80;0.80;;;;;;;;;;4969807;28;20755;-65
2022/08/22 04:15:57;;;;;;;1.85;0.70;;;;;;;;;;4969588;28;20198;-65
2022/08/22 04:18:27;;;;;;;0.82;0.70;;;;;;;;;;4953843;28;20281;-64
2022/08/22 04:21:04;;;;;;;1.23;0.90;;;;;;;;;;4969475;28;20238;-66
2022/08/22 04:23:43;;;;;;;2.10;0.88;;;;;;;;;;4969571;28;20214;-65
2022/08/22 04:26:14;;;;;;;0.60;0.60;;;;;;;;;;4969422;28;20206;-66
2022/08/22 04:28:44;;;;;;;1.05;1.05;;;;;;;;;;4969883;28;20210;-65
2022/08/22 04:31:12;;;;;;;0.80;0.80;;;;;;;;;;4969492;28;20260;-66
2022/08/22 04:33:43;;;;;;;0.57;0.57;;;;;;;;;;4969956;28;20721;-66
2022/08/22 04:36:13;;;;;;;0.70;0.70;;;;;;;;;;4969944;28;20676;-66
2022/08/22 04:38:43;;;;;;;0.82;0.63;;;;;;;;;;4969011;28;20234;-66
2022/08/22 04:41:13;;;;;;;1.00;1.00;;;;;;;;;;4962381;28;20215;-66
2022/08/22 04:43:43;;;;;;;0.80;0.80;;;;;;;;;;4961046;28;20239;-66
2022/08/22 04:46:13;;;;;;;0.63;0.63;;;;;;;;;;4970115;28;20214;-66
2022/08/22 04:48:42;;;;;;;0.70;0.70;;;;;;;;;;4969593;28;20217;-65
2022/08/22 04:51:20;;;;;;;4.03;0.80;;;;;;;;;;4970262;28;20264;-66
2022/08/22 04:54:04;;;;;;;0.88;0.88;;;;;;;;;;4970147;28;20218;-66
2022/08/22 04:56:39;;;;;;;0.80;0.80;;;;;;;;;;4969929;28;20304;-65
2022/08/22 04:59:11;;;;;;;1.50;0.68;;;;;;;;;;4964461;28;20704;-66
2022/08/22 05:01:39;;;;;;;0.65;0.50;;;;;;;;;;4969488;28;20210;-66
2022/08/22 05:04:08;;;;;;;1.48;0.70;;;;;;;;;;4967577;28;20210;-65
2022/08/22 05:06:38;;;;;;;0.80;0.73;;;;;;;;;;4969014;28;20285;-66
2022/08/22 05:09:08;;;;;;;0.70;0.70;;;;;;;;;;4969237;28;20296;-66
2022/08/22 05:11:38;;;;;;;0.82;0.80;;;;;;;;;;4968453;28;20664;-66
2022/08/22 05:14:08;;;;;;;0.60;0.60;;;;;;;;;;4969160;28;20219;-65
2022/08/22 05:16:37;;;;;;;1.23;1.10;;;;;;;;;;4967557;28;20211;-66
2022/08/22 05:19:07;;;;;;;0.70;0.70;;;;;;;;;;4969184;28;20234;-66
2022/08/22 05:21:35;;;;;;;1.67;0.63;;;;;;;;;;4969222;28;20218;-66
2022/08/22 05:24:04;;;;;;;0.80;0.80;;;;;;;;;;4968772;28;20270;-64
2022/08/22 05:26:35;;;;;;;1.70;0.70;;;;;;;;;;4965767;28;20202;-65
2022/08/22 05:29:06;;;;;;;0.85;0.63;;;;;;;;;;4969515;28;20205;-66
2022/08/22 05:31:37;;;;;;;1.15;0.90;;;;;;;;;;4969474;28;20214;-65
2022/08/22 05:34:06;;;;;;;1.20;0.88;;;;;;;;;;4968906;28;20225;-65
2022/08/22 05:36:35;;;;;;;0.70;0.70;;;;;;;;;;4969274;28;20728;-65
2022/08/22 05:39:05;;;;;;;0.77;0.75;;;;;;;;;;4969003;28;20233;-66
2022/08/22 05:41:35;;;;;;;0.68;0.68;;;;;;;;;;4969600;28;20581;-67
2022/08/22 05:44:04;;;;;;;0.80;0.80;;;;;;;;;;4968215;28;20329;-66
2022/08/22 05:46:37;;;;;;;1.52;0.70;;;;;;;;;;4967725;28;20206;-66
2022/08/22 05:49:05;;;;;;;0.90;0.90;;;;;;;;;;4968704;28;20218;-66
2022/08/22 05:51:37;;;;;;;1.08;0.80;;;;;;;;;;4969706;28;20206;-67
2022/08/22 05:54:08;;;;;;;0.60;0.60;;;;;;;;;;4968734;28;20226;-66
2022/08/22 05:56:38;;;;;;;0.98;0.98;;;;;;;;;;4969101;28;20206;-66
2022/08/22 05:59:11;;;;;;;1.00;0.95;;;;;;;;;;4968493;28;20297;-66
2022/08/22 06:01:43;;;;;;;0.75;0.75;;;;;;;;;;4968404;28;20297;-66
2022/08/22 06:04:14;;;;;;;0.70;0.70;;;;;;;;;;4969042;28;20222;-66
2022/08/22 06:06:43;;;;;;;0.50;0.50;;;;;;;;;;4969173;28;20210;-66
2022/08/22 06:09:15;;;;;;;1.10;0.75;;;;;;;;;;4969721;28;20211;-66
2022/08/22 06:11:46;;;;;;;0.77;0.75;;;;;;;;;;4984799;28;20210;-67
2022/08/22 06:14:19;;;;;;;2.80;0.80;;;;;;;;;;4971772;28;20214;-66
2022/08/22 06:16:48;;;;;;;0.95;0.80;;;;;;;;;;4972780;28;20210;-67
2022/08/22 06:19:16;;;;;;;1.60;0.60;;;;;;;;;;4972407;28;20253;-67
2022/08/22 06:21:44;;;;;;;0.70;0.70;;;;;;;;;;4972568;28;20210;-67
2022/08/22 06:24:17;;;;;;;0.70;0.70;;;;;;;;;;4972225;28;20294;-67
2022/08/22 06:26:48;;;;;;;0.77;0.70;;;;;;;;;;4972783;28;20694;-66
2022/08/22 06:29:19;;;;;;;0.80;0.80;;;;;;;;;;4972488;28;20206;-66
2022/08/22 06:31:47;;;;;;;0.82;0.82;;;;;;;;;;4972433;28;20767;-68
2022/08/22 06:34:16;;;;;;;0.85;0.85;;;;;;;;;;4970669;28;20214;-67
2022/08/22 06:36:45;;;;;;;1.35;0.80;;;;;;;;;;4971734;28;20308;-67
2022/08/22 06:39:18;;;;;;;1.05;1.05;;;;;;;;;;4971485;28;20215;-66
2022/08/22 06:41:50;;;;;;;0.90;0.90;;;;;;;;;;4971859;28;20230;-65
2022/08/22 06:44:21;;;;;;;2.53;0.98;;;;;;;;;;4971961;28;20214;-67
2022/08/22 06:46:49;;;;;;;1.90;1.20;;;;;;;;;;4971871;28;20210;-67
2022/08/22 06:49:17;;;;;;;2.22;1.15;;;;;;;;;;4971834;28;20215;-67
2022/08/22 06:51:45;;;;;;;1.10;1.10;;;;;;;;;;4972083;28;20225;-68
2022/08/22 06:54:15;;;;;;;1.52;1.35;;;;;;;;;;4971675;28;20214;-67
2022/08/22 06:56:44;;;;;;;1.20;1.20;;;;;;;;;;4971823;28;20665;-67
2022/08/22 06:59:14;;;;;;;2.90;1.58;;;;;;;;;;4962646;28;20210;-66
2022/08/22 07:01:45;;;;;;;3.17;1.10;;;;;;;;;;4971085;28;20709;-66
2022/08/22 07:04:12;;;;;;;1.67;1.17;;;;;;;;;;4970703;28;20210;-66
2022/08/22 07:06:42;;;;;;;1.20;1.20;;;;;;;;;;4971265;28;20233;-67
2022/08/22 07:09:17;;;;;;;1.10;1.10;;;;;;;;;;4971179;28;20222;-67
2022/08/22 07:11:44;;;;;;;1.30;1.30;;;;;;;;;;4970836;28;20210;-66
2022/08/22 07:14:12;;;;;;;1.50;1.50;;;;;;;;;;4970341;28;20221;-66
2022/08/22 07:16:42;;;;;;;1.33;1.33;;;;;;;;;;4970370;28;20207;-68
2022/08/22 07:19:13;;;;;;;1.25;1.15;;;;;;;;;;4969509;28;20257;-67
2022/08/22 07:21:43;;;;;;;1.50;1.50;;;;;;;;;;4970081;28;20207;-67
2022/08/22 07:24:11;;;;;;;2.70;1.45;;;;;;;;;;4969009;28;20210;-67
2022/08/22 07:26:42;;;;;;;1.30;1.30;;;;;;;;;;4969925;28;20213;-68
2022/08/22 07:29:12;;;;;;;1.38;1.38;;;;;;;;;;4970869;28;20345;-67
2022/08/22 07:31:46;;;;;;;1.58;1.48;;;;;;;;;;4970406;28;20622;-66
2022/08/22 07:34:31;;;;;;;1.48;1.48;;;;;;;;;;4970719;28;20374;-67
2022/08/22 07:37:00;;;;;;;1.58;1.50;;;;;;;;;;4970084;28;20202;-66
2022/08/22 07:39:31;;;;;;;2.25;1.20;;;;;;;;;;4970349;28;20209;-67
2022/08/22 07:42:10;;;;;;;1.40;1.40;;;;;;;;;;4968035;28;20198;-68
2022/08/22 07:44:45;;;;;;;3.20;1.30;;;;;;;;;;4970119;28;20206;-67
2022/08/22 07:47:15;;;;;;;1.90;1.80;;;;;;;;;;4971459;28;20202;-67
2022/08/22 07:49:47;;;;;;;7.00;1.70;;;;;;;;;;4970364;28;20206;-67
2022/08/22 07:52:15;;;;;;;1.35;1.35;;;;;;;;;;4968835;28;20218;-67
2022/08/22 07:54:46;;;;;;;4.85;1.33;;;;;;;;;;4970539;28;20754;-66
2022/08/22 07:57:16;;;;;;;1.48;1.48;;;;;;;;;;4970295;28;20697;-66
2022/08/22 07:59:46;;;;;;;1.65;1.55;;;;;;;;;;4965909;28;20700;-68
2022/08/22 08:02:14;;;;;;;1.30;1.30;;;;;;;;;;4970496;28;20202;-68
2022/08/22 08:04:43;;;;;;;1.45;1.42;;;;;;;;;;4970489;28;20214;-67
2022/08/22 08:07:13;;;;;;;1.25;1.25;;;;;;;;;;4970469;28;20214;-67
2022/08/22 08:09:41;;;;;;;1.48;1.38;;;;;;;;;;4970584;28;20764;-67
2022/08/22 08:12:10;;;;;;;1.65;1.60;;;;;;;;;;4970524;28;20567;-67
2022/08/22 08:14:39;;;;;;;1.73;1.55;;;;;;;;;;4969859;28;20206;-67
2022/08/22 08:17:09;;;;;;;1.67;1.58;;;;;;;;;;4970643;28;20229;-67
2022/08/22 08:19:39;;;;;;;2.05;1.40;;;;;;;;;;4966364;28;20240;-67
2022/08/22 08:22:06;;;;;;;1.80;1.80;;;;;;;;;;4961545;28;20211;-66
2022/08/22 08:24:36;;;;;;;1.75;1.75;;;;;;;;;;4970257;28;20232;-66
2022/08/22 08:29:53;;;;;;;1.55;1.55;;;;;;;;;;4969985;28;20214;-67
2022/08/22 08:32:21;;;;;;;1.95;1.70;;;;;;;;;;4970446;28;20760;-68
2022/08/22 08:34:48;;;;;;;1.73;1.63;;;;;;;;;;4967693;28;20278;-66
2022/08/22 08:37:20;;;;;;;1.90;1.80;;;;;;;;;;4970342;28;20217;-67
2022/08/22 08:39:49;;;;;;;2.08;1.90;;;;;;;;;;4970186;28;20203;-67
2022/08/22 08:43:25;;;;;;;1.50;1.50;;;;;;;;;;4969691;28;20211;-67
2022/08/22 08:45:26;;;;;;;2.08;1.90;;;;;;;;;;4969649;28;20217;-67
2022/08/22 08:48:15;;;;;;;1.48;1.38;;;;;;;;;;4970209;28;20881;-67
2022/08/22 08:50:51;;;;;;;2.33;1.95;;;;;;;;;;4952124;28;20214;-67
2022/08/22 08:53:29;;;;;;;2.00;1.90;;;;;;;;;;4967430;28;20205;-67
2022/08/22 08:56:01;;;;;;;1.75;1.75;;;;;;;;;;4969295;28;20206;-67
2022/08/22 08:58:33;;;;;;;1.60;1.50;;;;;;;;;;4969753;28;20230;-67
2022/08/22 09:01:06;;;;;;;1.77;1.77;;;;;;;;;;4969884;28;20225;-67
2022/08/22 09:03:55;;;;;;;1.90;1.90;;;;;;;;;;4969959;28;20289;-67
2022/08/22 09:06:39;;;;;;;1.80;1.70;;;;;;;;;;4950574;29;20214;-67
2022/08/22 09:09:12;;;;;;;1.65;1.65;;;;;;;;;;4961987;28;20206;-66
2022/08/22 09:12:01;;;;;;;2.00;1.80;;;;;;;;;;4969048;28;20270;-67
2022/08/22 09:14:45;;;;;;;1.88;1.83;;;;;;;;;;4969499;28;20210;-67
2022/08/22 09:17:22;;;;;;;1.60;1.60;;;;;;;;;;4969997;28;20321;-66
2022/08/22 09:20:04;;;;;;;1.92;1.83;;;;;;;;;;4965139;28;20237;-68
2022/08/22 09:22:42;;;;;;;1.77;1.70;;;;;;;;;;4965845;28;20210;-69
2022/08/22 09:25:22;;;;;;;1.80;1.80;;;;;;;;;;4969220;28;20225;-68
2022/08/22 09:27:55;;;;;;;1.70;1.60;;;;;;;;;;4968870;28;20241;-67
2022/08/22 09:30:23;;;;;;;1.40;1.40;;;;;;;;;;4969059;28;20213;-67
2022/08/22 09:32:55;;;;;;;2.20;1.80;;;;;;;;;;4969313;28;20203;-67
2022/08/22 09:35:25;;;;;;;1.70;1.70;;;;;;;;;;4969043;28;20397;-67
2022/08/22 09:38:00;;;;;;;2.47;2.13;;;;;;;;;;4969921;28;20206;-68
2022/08/22 09:40:29;;;;;;;1.77;1.77;;;;;;;;;;4967040;28;20232;-67
2022/08/22 09:43:01;;;;;;;1.92;1.83;;;;;;;;;;4969684;28;20210;-67
2022/08/22 09:45:44;;;;;;;1.48;1.48;;;;;;;;;;4969291;28;20281;-66
2022/08/22 09:48:29;;;;;;;1.73;1.60;;;;;;;;;;4973565;28;20218;-67
2022/08/22 09:50:59;;;;;;;1.90;1.80;;;;;;;;;;4973100;28;20602;-67
2022/08/22 09:53:38;;;;;;;1.73;1.73;;;;;;;;;;4972742;28;20210;-67
2022/08/22 09:56:07;;;;;;;1.52;1.52;;;;;;;;;;4966676;28;20237;-67
2022/08/22 09:58:37;;;;;;;1.98;1.88;;;;;;;;;;4973052;28;20783;-67
2022/08/22 10:01:10;;;;;;;2.67;2.10;;;;;;;;;;4972286;28;20729;-68
2022/08/22 10:03:53;;;;;;;1.67;1.67;;;;;;;;;;4969548;28;20677;-68
2022/08/22 10:06:21;;;;;;;1.83;1.73;;;;;;;;;;4972529;28;20210;-68
2022/08/22 10:08:50;;;;;;;2.13;1.80;;;;;;;;;;4972301;28;20203;-68
2022/08/22 10:11:23;;;;;;;2.08;1.98;;;;;;;;;;4972086;28;20203;-68
2022/08/22 10:14:05;;;;;;;1.60;1.50;;;;;;;;;;4972461;28;20257;-68
2022/08/22 10:16:51;;;;;;;1.27;1.27;;;;;;;;;;4972332;28;20210;-68
2022/08/22 10:19:21;;;;;;;1.77;1.77;;;;;;;;;;4970318;28;20328;-68
2022/08/22 10:22:06;;;;;;;1.45;1.40;;;;;;;;;;4953618;29;20238;-68
2022/08/22 10:24:38;;;;;;;2.22;1.85;;;;;;;;;;4971529;28;20265;-69
2022/08/22 10:27:08;;;;;;;1.17;1.17;;;;;;;;;;4969357;28;20215;-67
2022/08/22 10:29:42;;;;;;;1.55;1.45;;;;;;;;;;4972665;28;20681;-68
2022/08/22 10:32:16;;;;;;;1.45;1.35;;;;;;;;;;4971847;28;20777;-67
2022/08/22 10:34:44;;;;;;;1.88;1.70;;;;;;;;;;4972046;28;20218;-68
2022/08/22 10:37:16;;;;;;;1.20;1.20;;;;;;;;;;4971720;28;20214;-67
2022/08/22 10:39:45;;;;;;;1.35;1.35;;;;;;;;;;4972471;28;20214;-65
2022/08/22 10:42:18;;;;;;;1.63;1.60;;;;;;;;;;4971124;28;20225;-66
2022/08/22 10:44:55;;;;;;;1.40;1.30;;;;;;;;;;4971766;28;20690;-65
2022/08/22 10:47:24;;;;;;;1.27;1.27;;;;;;;;;;4971704;28;20209;-65
2022/08/22 10:49:52;;;;;;;1.27;1.27;;;;;;;;;;4971403;28;20222;-66
2022/08/22 10:52:22;;;;;;;1.20;1.02;;;;;;;;;;4971854;28;20592;-65
2022/08/22 10:54:51;;;;;;;1.50;1.40;;;;;;;;;;4971585;28;20206;-66
2022/08/22 10:57:29;;;;;;;1.15;1.10;;;;;;;;;;4972044;28;20218;-66
2022/08/22 11:00:01;;;;;;;1.05;1.05;;;;;;;;;;4969244;28;20233;-66
2022/08/22 11:02:35;;;;;;;1.83;1.13;;;;;;;;;;4971103;28;20238;-64
2022/08/22 11:05:21;;;;;;;1.25;1.25;;;;;;;;;;4966285;28;20585;-65
2022/08/22 11:07:50;;;;;;;1.40;1.40;;;;;;;;;;4970971;28;20785;-65
2022/08/22 11:10:22;;;;;;;1.10;1.10;;;;;;;;;;4969843;28;20670;-66
2022/08/22 11:12:54;;;;;;;1.00;1.00;;;;;;;;;;4970208;28;20216;-66
2022/08/22 11:15:42;;;;;;;1.13;1.10;;;;;;;;;;4970454;28;20215;-66
2022/08/22 11:18:14;;;;;;;1.38;1.30;;;;;;;;;;4971008;28;20318;-64
2022/08/22 11:20:48;;;;;;;1.20;1.20;;;;;;;;;;4970680;28;20242;-65
2022/08/22 11:23:20;;;;;;;2.20;1.10;;;;;;;;;;4970831;28;20214;-64
2022/08/22 11:25:52;;;;;;;1.20;1.17;;;;;;;;;;4970948;28;20270;-68
2022/08/22 11:28:49;;;;;;;1.17;1.05;;;;;;;;;;4970183;28;20328;-65
2022/08/22 11:31:23;;;;;;;1.00;1.00;;;;;;;;;;4970898;28;20206;-66
2022/08/22 11:33:53;;;;;;;1.05;1.05;;;;;;;;;;4970554;28;20692;-65
2022/08/22 11:36:26;;;;;;;1.30;1.20;;;;;;;;;;4970889;28;20206;-65
2022/08/22 11:38:59;;;;;;;1.30;1.30;;;;;;;;;;4969709;28;20573;-66
2022/08/22 11:41:28;;;;;;;1.52;1.25;;;;;;;;;;4967914;28;20318;-65
2022/08/22 11:43:57;;;;;;;0.90;0.90;;;;;;;;;;4970266;28;20444;-65
2022/08/22 11:46:29;;;;;;;1.05;1.05;;;;;;;;;;4970320;28;20569;-65
2022/08/22 11:49:07;;;;;;;1.30;1.30;;;;;;;;;;4970620;28;20709;-65
2022/08/22 11:51:47;;;;;;;1.30;1.20;;;;;;;;;;4970544;28;21110;-65
2022/08/22 11:54:18;;;;;;;5.07;1.02;;;;;;;;;;4969662;28;20221;-65
2022/08/22 11:56:48;;;;;;;1.35;1.33;;;;;;;;;;4970056;28;20214;-65
2022/08/22 11:59:21;;;;;;;1.83;1.45;;;;;;;;;;4970389;28;20224;-65
2022/08/22 12:01:52;;;;;;;1.00;1.00;;;;;;;;;;4966228;28;20269;-66
2022/08/22 12:04:21;;;;;;;1.55;1.23;;;;;;;;;;4965109;28;20242;-66
2022/08/22 12:06:55;;;;;;;1.38;1.17;;;;;;;;;;4964726;28;20225;-66
2022/08/22 12:09:30;;;;;;;1.20;1.20;;;;;;;;;;4966717;28;20203;-66
2022/08/22 12:12:18;;;;;;;1.17;1.00;;;;;;;;;;4967239;28;20217;-66
2022/08/22 12:14:47;;;;;;;1.20;1.20;;;;;;;;;;4967483;28;20218;-65
2022/08/22 12:17:19;;;;;;;1.00;1.00;;;;;;;;;;4969450;28;20234;-65
2022/08/22 12:19:51;;;;;;;1.08;1.08;;;;;;;;;;4963805;28;20242;-65
2022/08/22 12:22:39;;;;;;;1.33;1.10;;;;;;;;;;4965860;28;20229;-66
2022/08/22 12:25:09;;;;;;;1.30;1.30;;;;;;;;;;4967194;28;20210;-66
2022/08/22 12:27:46;;;;;;;1.17;1.17;;;;;;;;;;4969015;28;20221;-66
2022/08/22 12:30:16;;;;;;;2.38;1.13;;;;;;;;;;4965700;28;20210;-68
2022/08/22 12:33:03;;;;;;;3.55;1.13;;;;;;;;;;4958758;28;20202;-68
2022/08/22 12:35:39;;;;;;;0.90;0.90;;;;;;;;;;4963723;28;20245;-68
2022/08/22 12:38:15;;;;;;;1.10;1.10;;;;;;;;;;4968824;28;20518;-67
2022/08/22 12:40:48;;;;;;;1.20;1.20;;;;;;;;;;4967475;28;20237;-68
2022/08/22 12:43:23;;;;;;;1.00;1.00;;;;;;;;;;4968720;28;20230;-69
2022/08/22 12:46:05;;;;;;;1.05;1.05;;;;;;;;;;4969295;28;20214;-70
2022/08/22 12:48:46;;;;;;;1.38;1.27;;;;;;;;;;4966747;28;20211;-70
2022/08/22 12:51:31;;;;;;;1.10;1.10;;;;;;;;;;4949644;29;20218;-70
2022/08/22 12:54:08;;;;;;;2.40;1.02;;;;;;;;;;4959340;28;20228;-70
2022/08/22 12:56:38;;;;;;;1.95;0.90;;;;;;;;;;4967358;28;20214;-69
2022/08/22 12:59:22;;;;;;;1.17;1.00;;;;;;;;;;4965225;28;20583;-69
2022/08/22 13:01:50;;;;;;;0.88;0.88;;;;;;;;;;4969083;28;20240;-68
2022/08/22 13:04:21;;;;;;;1.48;1.35;;;;;;;;;;4967410;28;20209;-68
2022/08/22 13:07:02;;;;;;;1.27;1.17;;;;;;;;;;4967809;28;20676;-69
2022/08/22 13:09:31;;;;;;;1.50;1.38;;;;;;;;;;4968557;28;20723;-68
2022/08/22 13:12:00;;;;;;;0.98;0.98;;;;;;;;;;4967402;28;20481;-69
2022/08/22 13:14:28;;;;;;;1.02;1.02;;;;;;;;;;4966955;28;20239;-68
2022/08/22 13:16:57;;;;;;;0.60;0.60;;;;;;;;;;4967297;28;20234;-69
2022/08/22 13:19:27;;;;;;;4.03;1.02;;;;;;;;;;4966780;28;20238;-69
2022/08/22 13:21:58;;;;;;;1.10;1.10;;;;;;;;;;4970976;28;20967;-70
2022/08/22 13:24:28;;;;;;;0.70;0.70;;;;;;;;;;4972021;28;20571;-69
2022/08/22 13:26:57;;;;;;;2.50;1.27;;;;;;;;;;4970468;28;20210;-70
2022/08/22 13:29:26;;;;;;;1.15;1.15;;;;;;;;;;4972895;28;20206;-70
2022/08/22 13:31:57;;;;;;;0.90;0.90;;;;;;;;;;4968010;28;20329;-70
2022/08/22 13:34:33;;;;;;;0.95;0.95;;;;;;;;;;4970194;28;20683;-68
2022/08/22 13:37:00;;;;;;;2.05;1.00;;;;;;;;;;4972300;28;20217;-69
2022/08/22 13:39:30;;;;;;;1.35;1.25;;;;;;;;;;4972766;28;20217;-67
2022/08/22 13:41:59;;;;;;;0.95;0.95;;;;;;;;;;4972964;28;20230;-68
2022/08/22 13:44:27;;;;;;;1.10;1.05;;;;;;;;;;4972713;28;20210;-67
2022/08/22 13:46:55;;;;;;;3.22;1.33;;;;;;;;;;4973394;28;20233;-68
2022/08/22 13:49:32;;;;;;;1.65;1.20;;;;;;;;;;4972592;28;20253;-68
2022/08/22 13:52:06;;;;;;;1.10;1.10;;;;;;;;;;4972716;28;20217;-69
2022/08/22 13:54:48;;;;;;;1.23;1.13;;;;;;;;;;4972968;28;20245;-68
2022/08/22 13:57:18;;;;;;;0.80;0.80;;;;;;;;;;4970469;28;20217;-68
2022/08/22 13:59:48;;;;;;;1.13;1.00;;;;;;;;;;4972409;28;20206;-69
2022/08/22 14:02:18;;;;;;;2.63;1.10;;;;;;;;;;4972788;28;20329;-69
2022/08/22 14:04:48;;;;;;;1.25;1.00;;;;;;;;;;4973274;28;20222;-69
2022/08/22 14:07:30;;;;;;;0.93;0.93;;;;;;;;;;4972214;28;20225;-68
2022/08/22 14:09:59;;;;;;;1.00;1.00;;;;;;;;;;4970192;28;20269;-68
2022/08/22 14:12:28;;;;;;;1.00;1.00;;;;;;;;;;4970924;28;20661;-69
2022/08/22 14:14:57;;;;;;;0.80;0.80;;;;;;;;;;4972113;28;20217;-68
2022/08/22 14:17:25;;;;;;;1.90;1.38;;;;;;;;;;4972773;28;20297;-68
2022/08/22 14:19:56;;;;;;;1.13;1.02;;;;;;;;;;4972168;28;20241;-65
2022/08/22 14:22:24;;;;;;;1.13;1.13;;;;;;;;;;4972617;28;20601;-65
2022/08/22 14:24:53;;;;;;;1.00;1.00;;;;;;;;;;4971747;28;20206;-64
2022/08/22 14:27:27;;;;;;;0.70;0.70;;;;;;;;;;4971995;28;20214;-64
2022/08/22 14:29:56;;;;;;;1.00;0.93;;;;;;;;;;4972180;28;20217;-64
2022/08/22 14:32:35;;;;;;;1.00;1.00;;;;;;;;;;4972220;28;20214;-65
2022/08/22 14:35:11;;;;;;;1.02;1.02;;;;;;;;;;4972350;28;20642;-65
2022/08/22 14:37:40;;;;;;;1.00;1.00;;;;;;;;;;4972481;28;20210;-65
2022/08/22 14:40:11;;;;;;;1.40;1.17;;;;;;;;;;4972283;28;20203;-65
2022/08/22 14:42:40;;;;;;;1.10;1.10;;;;;;;;;;4972344;28;20230;-65
2022/08/22 14:45:10;;;;;;;0.95;0.95;;;;;;;;;;4972106;28;20210;-65
2022/08/22 14:47:42;;;;;;;0.82;0.82;;;;;;;;;;4968338;28;20211;-65
2022/08/22 14:50:30;;;;;;;0.90;0.90;;;;;;;;;;4971507;28;20222;-65
2022/08/22 14:53:04;;;;;;;1.10;1.10;;;;;;;;;;4971379;28;20591;-65
2022/08/22 14:55:31;;;;;;;1.27;0.85;;;;;;;;;;4971470;28;20214;-65
2022/08/22 14:58:14;;;;;;;1.00;1.00;;;;;;;;;;4971361;28;20210;-64
2022/08/22 15:00:43;;;;;;;1.20;1.10;;;;;;;;;;4971181;28;20302;-64
2022/08/22 15:03:22;;;;;;;1.17;1.17;;;;;;;;;;4971502;28;21031;-64
2022/08/22 15:05:51;;;;;;;1.45;1.35;;;;;;;;;;4971632;28;20221;-64
2022/08/22 15:08:23;;;;;;;0.80;0.80;;;;;;;;;;4971572;28;20837;-64
2022/08/22 15:10:50;;;;;;;1.30;1.20;;;;;;;;;;4966296;28;20225;-68
2022/08/22 15:13:23;;;;;;;0.98;0.98;;;;;;;;;;4969373;28;20203;-71
2022/08/22 15:15:51;;;;;;;1.27;1.27;;;;;;;;;;4970242;28;20214;-69
2022/08/22 15:18:19;;;;;;;1.10;1.10;;;;;;;;;;4970048;28;20227;-68
2022/08/22 15:20:46;;;;;;;1.00;1.00;;;;;;;;;;4970275;28;20751;-68
2022/08/22 15:23:19;;;;;;;1.00;1.00;;;;;;;;;;4968400;28;20708;-69